Time;durP1;ratioP1;P1;durP2;ratioP2;P2;SDS_P1;SDS_P2;PMS_P1;PMS_P2;Temp;Humidity;BMP_temperature;BMP_pressure;BME280_temperature;BME280_humidity;BME280_pressure;Samples;Min_cycle;Max_cycle;Signal;HPM_P1;HPM_P2
2021/07/15 00:00:18;;;;;;;14.60;13.10;;;;;;;22.65;82.28;100450.66;1803450;78;21074;-69
2021/07/15 00:02:45;;;;;;;15.63;14.13;;;;;;;22.59;82.46;100450.66;1795464;78;21158;-69
2021/07/15 00:05:13;;;;;;;15.17;13.57;;;;;;;22.49;82.68;100451.91;1796516;78;21219;-70
2021/07/15 00:07:40;;;;;;;14.93;13.53;;;;;;;22.39;82.89;100453.72;1799765;78;21101;-68
2021/07/15 00:10:20;;;;;;;14.60;13.20;;;;;;;22.38;83.05;100457.01;1787606;78;21013;-68
2021/07/15 00:12:50;;;;;;;14.83;13.45;;;;;;;22.39;83.07;100459.16;1802900;78;21053;-68
2021/07/15 00:15:21;;;;;;;15.83;14.23;;;;;;;22.40;83.11;100455.30;1786397;78;21521;-68
2021/07/15 00:17:50;;;;;;;16.40;14.47;;;;;;;22.41;83.08;100458.27;1797184;78;21042;-70
2021/07/15 00:20:18;;;;;;;19.23;14.50;;;;;;;22.41;83.07;100458.27;1799037;78;21006;-68
2021/07/15 00:22:45;;;;;;;18.00;14.73;;;;;;;22.40;83.03;100458.02;1813434;78;21085;-69
2021/07/15 00:25:18;;;;;;;15.27;13.77;;;;;;;22.39;83.05;100459.95;1785421;78;21015;-69
2021/07/15 00:27:46;;;;;;;15.55;13.85;;;;;;;22.39;83.04;100461.31;1800001;78;21090;-69
2021/07/15 00:30:13;;;;;;;15.17;13.77;;;;;;;22.38;82.98;100457.58;1804170;78;21055;-68
2021/07/15 00:32:40;;;;;;;17.13;14.27;;;;;;;22.38;82.88;100453.50;1801017;78;21124;-70
2021/07/15 00:35:09;;;;;;;19.37;14.73;;;;;;;22.37;82.90;100458.69;1774997;79;21010;-69
2021/07/15 00:37:35;;;;;;;15.53;13.93;;;;;;;22.38;82.93;100460.30;1794092;78;21098;-69
2021/07/15 00:40:06;;;;;;;16.10;14.20;;;;;;;22.35;82.96;100461.77;1790631;78;21026;-69
2021/07/15 00:42:34;;;;;;;15.23;13.73;;;;;;;22.35;82.97;100457.69;1804131;78;21116;-70
2021/07/15 00:45:01;;;;;;;15.97;14.37;;;;;;;22.33;82.95;100454.50;1801516;78;21127;-69
2021/07/15 00:47:28;;;;;;;16.60;14.87;;;;;;;22.33;82.93;100459.15;1796164;78;21074;-69
2021/07/15 00:49:57;;;;;;;16.17;14.53;;;;;;;22.32;82.95;100448.05;1800773;78;21088;-68
2021/07/15 00:52:24;;;;;;;15.57;14.10;;;;;;;22.32;83.03;100448.05;1791232;78;21092;-69
2021/07/15 00:54:52;;;;;;;16.03;14.43;;;;;;;22.31;83.23;100451.88;1793732;78;21038;-68
2021/07/15 00:57:19;;;;;;;18.07;15.03;;;;;;;22.27;83.36;100453.13;1767305;79;22233;-69
2021/07/15 00:59:48;;;;;;;16.63;14.87;;;;;;;22.26;83.45;100453.48;1783343;78;21030;-69
2021/07/15 01:02:18;;;;;;;16.33;14.60;;;;;;;22.23;83.54;100450.28;1797779;78;21203;-69
2021/07/15 01:04:46;;;;;;;16.43;14.83;;;;;;;22.22;83.77;100456.08;1802262;78;21034;-69
2021/07/15 01:07:14;;;;;;;16.27;14.67;;;;;;;22.20;83.96;100455.04;1792777;78;21030;-70
2021/07/15 01:09:42;;;;;;;16.77;15.10;;;;;;;22.18;84.05;100465.48;1787580;79;21139;-70
2021/07/15 01:12:37;;;;;;;16.10;14.50;;;;;;;22.16;84.10;100458.78;1803761;78;21018;-70
2021/07/15 01:15:17;;;;;;;18.10;14.97;;;;;;;22.14;84.10;100457.72;1735899;80;21102;-69
2021/07/15 01:18:16;;;;;;;16.83;15.13;;;;;;;22.13;84.10;100458.86;1747362;80;21254;-69
2021/07/15 01:21:26;;;;;;;15.37;13.80;;;;;;;22.10;84.12;100464.97;1764205;78;21054;-69
2021/07/15 01:24:36;;;;;;;16.67;15.00;;;;;;;22.07;84.25;100462.92;1797853;78;21026;-69
2021/07/15 01:27:43;;;;;;;16.20;14.53;;;;;;;22.05;84.34;100468.48;1783711;78;21034;-68
2021/07/15 01:30:16;;;;;;;16.53;14.93;;;;;;;22.00;84.58;100468.91;1776594;79;21616;-69
2021/07/15 01:33:17;;;;;;;16.23;14.53;;;;;;;21.97;84.97;100466.07;1802661;78;21132;-69
2021/07/15 01:35:54;;;;;;;15.97;14.30;;;;;;;21.95;85.12;100465.62;1790259;78;21003;-69
2021/07/15 01:38:25;;;;;;;16.33;14.73;;;;;;;21.93;85.21;100461.87;1793786;78;21107;-69
2021/07/15 01:40:57;;;;;;;16.48;14.98;;;;;;;21.90;85.34;100463.90;1803259;78;21082;-69
2021/07/15 01:43:49;;;;;;;15.77;14.17;;;;;;;21.89;85.55;100462.89;1795513;78;21038;-70
2021/07/15 01:46:16;;;;;;;16.13;14.47;;;;;;;21.86;85.79;100464.92;1799727;78;20988;-68
2021/07/15 01:48:44;;;;;;;17.47;14.53;;;;;;;21.83;85.96;100461.51;1779558;79;21062;-69
2021/07/15 01:51:11;;;;;;;15.37;13.80;;;;;;;21.78;86.06;100462.48;1801008;78;21081;-69
2021/07/15 01:53:39;;;;;;;15.30;13.83;;;;;;;21.75;86.29;100461.80;1808912;78;21055;-68
2021/07/15 01:56:09;;;;;;;15.37;13.87;;;;;;;21.72;86.52;100464.64;1792641;78;21033;-68
2021/07/15 01:58:38;;;;;;;15.20;13.48;;;;;;;21.71;86.71;100464.96;1794101;77;21962;-69
2021/07/15 02:01:06;;;;;;;15.97;14.27;;;;;;;21.70;86.87;100466.89;1798777;78;21057;-69
2021/07/15 02:03:34;;;;;;;15.43;14.03;;;;;;;21.69;86.97;100473.47;1791593;78;21822;-69
2021/07/15 02:06:00;;;;;;;15.23;13.73;;;;;;;21.67;87.04;100475.71;1812973;78;20995;-69
2021/07/15 02:08:27;;;;;;;15.17;13.63;;;;;;;21.65;87.04;100472.55;1809489;78;21006;-69
2021/07/15 02:10:55;;;;;;;16.03;14.57;;;;;;;21.64;87.02;100476.38;1790668;78;21034;-68
2021/07/15 02:13:23;;;;;;;16.67;14.90;;;;;;;21.63;87.00;100473.44;1789138;78;21054;-69
2021/07/15 02:15:50;;;;;;;15.00;13.60;;;;;;;21.63;87.06;100477.52;1804555;78;21067;-69
2021/07/15 02:18:21;;;;;;;16.83;15.13;;;;;;;21.62;87.18;100481.37;1794589;78;20928;-68
2021/07/15 02:20:53;;;;;;;15.30;13.77;;;;;;;21.62;87.25;100483.27;1794214;78;21006;-69
2021/07/15 02:23:22;;;;;;;16.37;14.70;;;;;;;21.62;87.28;100477.83;1796370;77;22241;-69
2021/07/15 02:25:52;;;;;;;15.83;14.23;;;;;;;21.61;87.32;100474.32;1779669;78;21101;-68
2021/07/15 02:28:22;;;;;;;15.53;14.10;;;;;;;21.59;87.40;100479.31;1792031;78;21378;-70
2021/07/15 02:30:56;;;;;;;15.80;14.30;;;;;;;21.59;87.58;100473.09;1801720;78;20931;-69
2021/07/15 02:33:26;;;;;;;15.93;14.30;;;;;;;21.59;87.65;100473.88;1809347;78;21175;-69
2021/07/15 02:35:55;;;;;;;15.67;14.13;;;;;;;21.61;87.67;100477.04;1806814;78;21007;-70
2021/07/15 02:38:22;;;;;;;16.40;14.00;;;;;;;21.62;87.60;100477.29;1805583;77;21030;-69
2021/07/15 02:40:52;;;;;;;15.90;14.40;;;;;;;21.64;87.48;100478.30;1803988;77;21078;-69
2021/07/15 02:43:20;;;;;;;15.03;13.53;;;;;;;21.65;87.55;100478.52;1796879;78;21706;-68
2021/07/15 02:45:48;;;;;;;14.00;12.80;;;;;;;21.67;87.60;100473.56;1799138;78;21688;-69
2021/07/15 02:48:17;;;;;;;15.50;13.97;;;;;;;21.68;87.57;100470.50;1802298;78;21666;-69
2021/07/15 02:50:45;;;;;;;14.13;12.73;;;;;;;21.73;87.58;100476.30;1800314;78;21092;-69
2021/07/15 02:53:12;;;;;;;14.23;12.70;;;;;;;21.76;87.61;100481.08;1804365;78;21658;-69
2021/07/15 02:55:43;;;;;;;14.37;13.00;;;;;;;21.78;87.66;100471.47;1799869;78;21030;-69
2021/07/15 02:58:17;;;;;;;15.48;13.88;;;;;;;21.84;87.74;100478.04;1799968;78;21014;-69
2021/07/15 03:00:57;;;;;;;14.30;12.93;;;;;;;21.89;87.72;100480.56;1800991;78;21512;-69
2021/07/15 03:03:54;;;;;;;15.35;13.78;;;;;;;21.93;87.68;100480.91;1796848;78;21100;-69
2021/07/15 03:06:28;;;;;;;15.30;13.87;;;;;;;22.00;87.72;100487.16;1798381;78;21139;-68
2021/07/15 03:08:58;;;;;;;15.60;13.90;;;;;;;22.03;87.73;100484.34;1778452;78;21525;-70
2021/07/15 03:11:42;;;;;;;15.07;13.27;;;;;;;22.05;87.61;100485.59;1795392;78;21584;-70
2021/07/15 03:14:09;;;;;;;15.67;14.13;;;;;;;22.10;87.59;100482.65;1795843;78;21381;-70
2021/07/15 03:16:57;;;;;;;14.83;13.20;;;;;;;22.16;87.50;100479.19;1800646;78;21559;-69
2021/07/15 03:19:27;;;;;;;15.23;13.83;;;;;;;22.21;87.47;100481.14;1780905;79;21077;-69
2021/07/15 03:21:55;;;;;;;15.83;14.43;;;;;;;22.28;87.40;100477.04;1786246;78;20987;-69
2021/07/15 03:24:23;;;;;;;14.80;13.40;;;;;;;22.33;87.24;100478.98;1777213;78;21600;-71
2021/07/15 03:26:50;;;;;;;15.00;13.70;;;;;;;22.41;87.02;100484.91;1754317;80;21077;-69
2021/07/15 03:29:17;;;;;;;15.57;14.07;;;;;;;22.46;86.75;100487.96;1776283;78;20995;-70
2021/07/15 03:31:44;;;;;;;16.47;14.87;;;;;;;22.43;86.58;100484.55;1776727;78;21996;-70
2021/07/15 03:34:12;;;;;;;15.97;14.30;;;;;;;22.44;86.44;100486.95;1765944;78;21062;-69
2021/07/15 03:36:41;;;;;;;15.13;13.23;;;;;;;22.52;86.42;100489.91;1778932;78;22004;-70
2021/07/15 03:39:08;;;;;;;15.83;13.67;;;;;;;22.59;86.19;100484.11;1755747;79;21069;-70
2021/07/15 03:41:35;;;;;;;15.20;13.60;;;;;;;22.66;85.97;100481.62;1762180;78;21303;-70
2021/07/15 03:44:02;;;;;;;15.80;14.20;;;;;;;22.77;85.77;100486.61;1780681;78;21168;-70
2021/07/15 03:46:30;;;;;;;15.50;14.00;;;;;;;22.86;85.60;100483.20;1783074;78;21685;-70
2021/07/15 03:48:57;;;;;;;15.70;14.17;;;;;;;22.98;85.35;100487.31;1786168;79;21601;-68
2021/07/15 03:51:24;;;;;;;17.10;15.07;;;;;;;23.08;85.16;100490.14;1769284;79;21541;-70
2021/07/15 03:53:51;;;;;;;15.27;13.77;;;;;;;23.18;85.04;100490.45;1801750;78;21512;-70
2021/07/15 03:56:19;;;;;;;15.40;14.03;;;;;;;23.29;84.93;100488.62;1786751;78;21100;-69
2021/07/15 03:58:46;;;;;;;15.53;13.53;;;;;;;23.41;84.64;100481.20;1766503;79;21032;-69
2021/07/15 04:01:14;;;;;;;15.07;13.67;;;;;;;23.55;84.15;100488.20;1779417;79;21085;-69
2021/07/15 04:03:42;;;;;;;14.00;12.60;;;;;;;23.68;83.61;100491.69;1787339;79;21060;-68
2021/07/15 04:06:10;;;;;;;15.93;14.13;;;;;;;23.79;83.01;100487.34;1747664;80;21078;-70
2021/07/15 04:08:40;;;;;;;14.33;12.93;;;;;;;23.92;82.60;100483.98;1792019;79;20955;-69
2021/07/15 04:11:06;;;;;;;14.03;12.73;;;;;;;24.04;82.25;100487.45;1733592;80;21141;-69
2021/07/15 04:13:35;;;;;;;14.70;13.20;;;;;;;24.20;81.61;100492.14;1768441;80;21018;-69
2021/07/15 04:16:27;;;;;;;14.33;12.90;;;;;;;24.34;80.60;100492.49;1762800;79;20987;-69
2021/07/15 04:18:57;;;;;;;14.35;12.53;;;;;;;24.48;79.89;100494.27;1788543;79;21587;-68
2021/07/15 04:21:25;;;;;;;13.78;12.45;;;;;;;24.65;79.16;100491.74;1772698;78;20960;-68
2021/07/15 04:23:55;;;;;;;14.67;12.27;;;;;;;24.77;78.54;100489.47;1751651;80;20983;-68
2021/07/15 04:26:23;;;;;;;14.13;12.70;;;;;;;24.90;77.65;100486.84;1735274;80;21424;-68
2021/07/15 04:28:50;;;;;;;13.43;12.13;;;;;;;25.04;76.81;100485.00;1782517;80;21007;-68
2021/07/15 04:31:38;;;;;;;13.47;12.17;;;;;;;25.18;75.63;100484.58;1791632;78;21046;-69
2021/07/15 04:34:05;;;;;;;13.30;12.00;;;;;;;25.33;74.70;100478.25;1753002;79;21540;-69
2021/07/15 04:36:32;;;;;;;13.47;12.13;;;;;;;25.48;73.89;100478.77;1764863;78;21054;-70
2021/07/15 04:39:00;;;;;;;13.70;12.30;;;;;;;25.61;73.28;100475.31;1766049;79;21099;-69
2021/07/15 04:41:27;;;;;;;13.70;12.40;;;;;;;25.74;72.53;100474.59;1763527;79;21068;-69
2021/07/15 04:43:55;;;;;;;14.03;12.30;;;;;;;25.85;71.90;100473.45;1780269;79;21015;-69
2021/07/15 04:46:22;;;;;;;13.40;12.07;;;;;;;25.96;71.54;100471.13;1775520;78;21117;-70
2021/07/15 04:48:49;;;;;;;12.83;11.63;;;;;;;26.09;71.00;100470.94;1787871;80;21042;-69
2021/07/15 04:51:16;;;;;;;12.97;11.40;;;;;;;26.17;70.36;100463.86;1781660;78;21059;-69
2021/07/15 04:53:47;;;;;;;12.97;11.77;;;;;;;26.26;69.35;100459.52;1781025;78;21308;-69
2021/07/15 04:56:14;;;;;;;13.33;11.93;;;;;;;26.34;68.94;100456.31;1767697;79;21578;-69
2021/07/15 04:58:42;;;;;;;12.43;11.33;;;;;;;26.47;68.40;100456.92;1788400;78;21918;-69
2021/07/15 05:01:10;;;;;;;14.07;11.63;;;;;;;26.57;67.66;100464.54;1777498;80;21574;-69
2021/07/15 05:03:39;;;;;;;14.17;11.20;;;;;;;26.68;66.50;100463.33;1751761;80;21168;-69
2021/07/15 05:06:08;;;;;;;12.43;11.17;;;;;;;26.79;65.75;100462.92;1776492;78;21038;-69
2021/07/15 05:08:41;;;;;;;12.13;10.93;;;;;;;26.88;64.59;100459.31;1787727;78;21507;-69
2021/07/15 05:11:07;;;;;;;14.00;11.60;;;;;;;26.93;64.15;100466.44;1771017;78;21121;-69
2021/07/15 05:13:36;;;;;;;12.85;10.82;;;;;;;27.01;64.25;100458.52;1762262;80;21211;-69
2021/07/15 05:16:05;;;;;;;11.77;10.57;;;;;;;27.13;63.73;100459.69;1784571;78;21525;-69
2021/07/15 05:18:32;;;;;;;11.80;10.80;;;;;;;27.22;62.96;100454.73;1786420;78;21071;-69
2021/07/15 05:21:00;;;;;;;12.47;11.30;;;;;;;27.33;62.77;100456.22;1779683;78;21085;-69
2021/07/15 05:23:27;;;;;;;12.57;11.27;;;;;;;27.42;62.00;100457.31;1777740;78;21131;-68
2021/07/15 05:25:56;;;;;;;12.63;11.43;;;;;;;27.47;61.27;100453.64;1765411;80;21597;-68
2021/07/15 05:28:39;;;;;;;12.20;10.77;;;;;;;27.51;60.68;100455.05;1763400;79;21110;-69
2021/07/15 05:31:10;;;;;;;11.70;10.57;;;;;;;27.54;60.74;100461.16;1769117;79;21101;-69
2021/07/15 05:33:37;;;;;;;12.60;11.27;;;;;;;27.62;60.64;100464.80;1745629;81;21042;-69
2021/07/15 05:36:04;;;;;;;14.33;11.37;;;;;;;27.62;60.45;100462.84;1746503;80;21991;-69
2021/07/15 05:38:31;;;;;;;12.27;10.97;;;;;;;27.67;60.46;100457.00;1785275;78;21224;-69
2021/07/15 05:40:57;;;;;;;12.37;11.17;;;;;;;27.77;60.80;100457.75;1787107;78;21239;-70
2021/07/15 05:43:24;;;;;;;11.73;10.67;;;;;;;27.86;60.88;100453.90;1790503;78;21610;-70
2021/07/15 05:45:51;;;;;;;13.63;10.77;;;;;;;27.95;60.80;100453.02;1792475;78;21026;-69
2021/07/15 05:48:18;;;;;;;13.00;10.23;;;;;;;28.05;59.98;100456.44;1765664;79;21530;-69
2021/07/15 05:50:45;;;;;;;11.23;10.10;;;;;;;28.16;59.97;100461.44;1763028;80;21366;-70
2021/07/15 05:53:12;;;;;;;12.97;10.83;;;;;;;28.26;59.47;100460.73;1760644;80;21070;-69
2021/07/15 05:55:39;;;;;;;12.33;10.60;;;;;;;28.37;59.24;100461.44;1766889;80;21066;-69
2021/07/15 05:58:06;;;;;;;11.60;10.30;;;;;;;28.44;58.99;100451.31;1780191;78;21018;-70
2021/07/15 06:00:35;;;;;;;12.50;10.07;;;;;;;28.52;58.54;100453.52;1778977;78;21467;-70
2021/07/15 06:03:03;;;;;;;11.12;10.03;;;;;;;28.63;58.07;100453.59;1790064;78;21034;-68
2021/07/15 06:05:33;;;;;;;11.30;9.73;;;;;;;28.74;57.49;100451.71;1784925;78;21525;-70
2021/07/15 06:08:00;;;;;;;11.83;10.37;;;;;;;28.82;57.16;100447.82;1763841;79;21065;-69
2021/07/15 06:10:28;;;;;;;13.97;10.53;;;;;;;28.90;57.01;100451.42;1764210;79;21619;-69
2021/07/15 06:12:56;;;;;;;10.20;9.20;;;;;;;28.99;56.96;100448.52;1757300;79;21146;-69
2021/07/15 06:15:25;;;;;;;12.07;9.27;;;;;;;29.13;56.63;100451.17;1746684;81;21086;-69
2021/07/15 06:17:53;;;;;;;11.47;8.80;;;;;;;29.23;56.18;100448.27;1767052;79;21058;-69
2021/07/15 06:20:19;;;;;;;11.57;9.27;;;;;;;29.33;55.62;100451.05;1768971;79;21109;-70
2021/07/15 06:22:47;;;;;;;10.27;8.87;;;;;;;29.42;54.98;100452.09;1769773;79;21542;-70
2021/07/15 06:25:14;;;;;;;9.23;8.33;;;;;;;29.50;54.88;100449.54;1764246;79;21091;-69
2021/07/15 06:27:42;;;;;;;9.85;8.83;;;;;;;29.60;54.53;100441.93;1744347;79;21022;-71
2021/07/15 06:30:11;;;;;;;10.23;8.50;;;;;;;29.61;53.94;100439.96;1767658;79;21140;-70
2021/07/15 06:32:38;;;;;;;8.93;8.03;;;;;;;29.61;54.19;100442.12;1779661;79;21003;-70
2021/07/15 06:35:07;;;;;;;8.70;7.80;;;;;;;29.60;53.23;100430.92;1758369;79;21713;-70
2021/07/15 06:37:40;;;;;;;9.67;7.90;;;;;;;29.68;52.75;100436.66;1784749;78;21118;-70
2021/07/15 06:40:09;;;;;;;9.48;8.58;;;;;;;29.77;52.06;100435.48;1777721;78;21145;-71
2021/07/15 06:42:36;;;;;;;10.45;8.45;;;;;;;29.84;51.97;100428.60;1756042;80;21259;-70
2021/07/15 06:45:08;;;;;;;8.30;7.50;;;;;;;29.90;52.50;100425.66;1781405;78;21019;-69
2021/07/15 06:47:35;;;;;;;8.25;7.42;;;;;;;30.02;51.84;100428.04;1783354;78;21091;-70
2021/07/15 06:50:05;;;;;;;11.08;7.87;;;;;;;30.10;50.74;100422.72;1784797;78;21080;-71
2021/07/15 06:52:31;;;;;;;9.35;7.83;;;;;;;30.16;51.36;100423.12;1783550;78;21051;-69
2021/07/15 06:55:01;;;;;;;8.13;7.30;;;;;;;30.27;51.26;100419.79;1780575;80;21039;-70
2021/07/15 06:57:29;;;;;;;9.25;7.45;;;;;;;30.41;50.17;100418.23;1781239;78;21015;-69
2021/07/15 06:59:55;;;;;;;8.48;7.10;;;;;;;30.53;50.02;100417.80;1785666;78;21465;-70
2021/07/15 07:02:23;;;;;;;8.48;7.25;;;;;;;30.66;49.22;100416.79;1775800;78;21760;-70
2021/07/15 07:04:49;;;;;;;8.28;7.47;;;;;;;30.68;48.73;100417.19;1788045;78;21601;-69
2021/07/15 07:07:16;;;;;;;8.38;7.12;;;;;;;30.66;48.83;100420.92;1786570;78;21054;-70
2021/07/15 07:09:44;;;;;;;8.63;7.10;;;;;;;30.61;48.23;100419.38;1786639;78;21026;-75
2021/07/15 07:12:11;;;;;;;9.98;7.12;;;;;;;30.61;48.37;100413.27;1788066;78;21007;-71
2021/07/15 07:14:39;;;;;;;9.30;6.50;;;;;;;30.70;48.32;100411.48;1788277;78;21066;-69
2021/07/15 07:17:06;;;;;;;10.20;7.30;;;;;;;30.83;47.44;100410.47;1777965;79;21077;-71
2021/07/15 07:19:32;;;;;;;8.48;6.53;;;;;;;30.84;45.83;100415.59;1782999;78;21189;-71
2021/07/15 07:21:59;;;;;;;8.85;6.17;;;;;;;30.79;46.91;100419.34;1783087;80;21112;-70
2021/07/15 07:24:26;;;;;;;7.28;6.22;;;;;;;30.86;47.11;100419.32;1784320;78;21053;-72
2021/07/15 07:26:53;;;;;;;7.65;6.22;;;;;;;30.95;46.26;100412.80;1773922;80;21100;-70
2021/07/15 07:29:20;;;;;;;6.85;6.15;;;;;;;31.04;44.89;100421.44;1769926;78;21137;-71
2021/07/15 07:31:46;;;;;;;6.58;5.97;;;;;;;31.08;45.15;100415.30;1791161;78;21146;-70
2021/07/15 07:34:13;;;;;;;7.55;5.95;;;;;;;31.19;45.43;100417.23;1792492;78;21526;-72
2021/07/15 07:36:39;;;;;;;8.05;6.08;;;;;;;31.29;44.63;100418.58;1765727;78;21050;-70
2021/07/15 07:39:09;;;;;;;11.10;6.47;;;;;;;31.41;43.51;100415.19;1775788;79;21089;-71
2021/07/15 07:41:37;;;;;;;7.15;5.90;;;;;;;31.47;43.93;100415.73;1767170;79;21569;-72
2021/07/15 07:44:04;;;;;;;9.13;5.92;;;;;;;31.52;43.39;100413.14;1762535;81;21038;-73
2021/07/15 07:46:31;;;;;;;7.47;6.15;;;;;;;31.59;43.04;100408.16;1761047;79;21086;-73
2021/07/15 07:48:58;;;;;;;7.85;6.08;;;;;;;31.65;42.67;100417.59;1767749;81;21660;-73
2021/07/15 07:51:25;;;;;;;6.62;5.70;;;;;;;31.71;42.77;100414.60;1766434;79;21492;-72
2021/07/15 07:53:53;;;;;;;6.15;5.55;;;;;;;31.77;41.59;100412.39;1715879;82;21085;-72
2021/07/15 07:56:20;;;;;;;7.50;5.70;;;;;;;31.87;39.81;100407.98;1754339;80;21027;-73
2021/07/15 07:58:49;;;;;;;6.40;5.37;;;;;;;31.96;39.25;100412.48;1774355;78;21200;-74
2021/07/15 08:01:17;;;;;;;8.23;5.72;;;;;;;32.07;39.30;100415.15;1770595;80;21086;-73
2021/07/15 08:03:43;;;;;;;7.55;5.53;;;;;;;32.19;39.84;100411.12;1768267;79;21733;-73
2021/07/15 08:06:10;;;;;;;6.22;5.50;;;;;;;32.32;39.18;100419.69;1747443;80;21063;-73
2021/07/15 08:08:39;;;;;;;7.92;5.85;;;;;;;32.38;38.66;100418.84;1752636;79;21508;-71
2021/07/15 08:11:05;;;;;;;8.05;6.15;;;;;;;32.36;39.16;100414.30;1740163;80;21078;-72
2021/07/15 08:13:32;;;;;;;6.22;5.60;;;;;;;32.35;39.17;100416.11;1762242;80;21015;-72
2021/07/15 08:15:59;;;;;;;8.98;5.53;;;;;;;32.36;38.40;100413.52;1762833;79;21618;-72
2021/07/15 08:18:28;;;;;;;6.12;5.53;;;;;;;32.29;37.37;100413.00;1768395;80;21086;-72
2021/07/15 08:20:55;;;;;;;8.10;6.03;;;;;;;32.18;37.74;100413.09;1763851;79;21102;-72
2021/07/15 08:23:23;;;;;;;7.83;6.15;;;;;;;32.18;38.21;100416.44;1788560;80;21088;-73
2021/07/15 08:25:52;;;;;;;9.55;6.12;;;;;;;32.20;38.34;100412.67;1781853;78;21031;-71
2021/07/15 08:28:19;;;;;;;9.25;6.25;;;;;;;32.28;38.81;100412.81;1786163;80;21138;-72
2021/07/15 08:30:45;;;;;;;12.53;6.10;;;;;;;32.44;38.97;100408.12;1788539;78;21062;-71
2021/07/15 08:33:11;;;;;;;8.35;5.95;;;;;;;32.59;38.40;100412.33;1788171;78;21649;-70
2021/07/15 08:35:38;;;;;;;8.45;6.08;;;;;;;32.64;38.21;100414.66;1787203;79;21063;-72
2021/07/15 08:38:06;;;;;;;6.78;5.92;;;;;;;32.67;37.57;100415.19;1790890;79;21094;-72
2021/07/15 08:40:33;;;;;;;7.45;6.75;;;;;;;32.70;37.54;100413.59;1789168;80;21128;-72
2021/07/15 08:43:00;;;;;;;7.75;6.17;;;;;;;32.74;37.46;100412.16;1787668;78;21065;-72
2021/07/15 08:45:26;;;;;;;7.90;6.55;;;;;;;32.81;37.29;100411.50;1777082;80;21082;-72
2021/07/15 08:47:55;;;;;;;7.03;6.10;;;;;;;32.96;36.89;100407.98;1775172;79;21076;-72
2021/07/15 08:50:22;;;;;;;8.75;5.65;;;;;;;32.96;36.89;100413.52;1789983;80;21194;-72
2021/07/15 08:52:48;;;;;;;6.85;5.90;;;;;;;32.91;37.36;100406.44;1787730;78;21549;-72
2021/07/15 08:55:21;;;;;;;7.20;6.03;;;;;;;32.99;37.64;100407.16;1782608;78;20959;-72
2021/07/15 08:57:44;;;;;;;6.83;5.90;;;;;;;33.10;37.93;100407.02;1783474;78;21471;-72
2021/07/15 09:00:15;;;;;;;8.65;6.12;;;;;;;33.15;36.89;100408.73;1773081;78;21019;-72
2021/07/15 09:02:42;;;;;;;8.00;6.12;;;;;;;33.18;36.85;100404.36;1785144;78;21132;-71
2021/07/15 09:05:10;;;;;;;6.67;5.60;;;;;;;33.29;37.20;100402.22;1778300;78;21144;-72
2021/07/15 09:07:40;;;;;;;7.70;5.70;;;;;;;33.39;37.69;100399.90;1788991;78;21012;-71
2021/07/15 09:10:08;;;;;;;8.28;5.75;;;;;;;33.44;37.42;100403.42;1781888;78;21110;-72
2021/07/15 09:12:36;;;;;;;7.55;5.70;;;;;;;33.54;37.53;100397.75;1786484;78;21030;-72
2021/07/15 09:15:11;;;;;;;8.15;5.50;;;;;;;33.73;36.98;100394.09;1783830;78;21059;-72
2021/07/15 09:17:39;;;;;;;6.65;5.80;;;;;;;33.88;36.60;100391.89;1788702;79;20991;-70
2021/07/15 09:20:19;;;;;;;7.75;6.00;;;;;;;33.95;35.42;100389.00;1783890;79;21603;-72
2021/07/15 09:23:08;;;;;;;7.50;5.62;;;;;;;33.87;36.09;100386.96;1777068;78;21057;-72
2021/07/15 09:25:43;;;;;;;6.15;5.42;;;;;;;33.87;35.71;100395.88;1779869;78;21054;-72
2021/07/15 09:28:12;;;;;;;6.72;5.37;;;;;;;33.95;36.28;100391.16;1762485;79;21003;-72
2021/07/15 09:30:41;;;;;;;;;;;;;;;34.10;36.55;100388.98;1786352;78;21110;-72
2021/07/15 09:33:14;;;;;;;5.92;5.33;;;;;;;34.26;35.84;100378.00;1788203;78;20299;-71
2021/07/15 09:35:43;;;;;;;6.67;5.97;;;;;;;34.42;36.23;100377.89;1787450;78;20987;-74
2021/07/15 09:38:23;;;;;;;6.65;5.45;;;;;;;34.50;35.05;100378.73;1792614;78;21026;-72
2021/07/15 09:41:01;;;;;;;6.25;5.33;;;;;;;34.36;35.01;100375.46;1782955;78;21109;-72
2021/07/15 09:43:34;;;;;;;6.30;5.40;;;;;;;34.29;36.34;100379.14;1784595;79;21127;-72
2021/07/15 09:46:14;;;;;;;6.75;5.78;;;;;;;34.36;35.04;100381.00;1767644;78;21058;-72
2021/07/15 09:48:47;;;;;;;6.22;5.60;;;;;;;34.46;35.96;100381.41;1781362;80;20952;-72
2021/07/15 09:51:16;;;;;;;6.42;5.67;;;;;;;34.62;34.57;100371.81;1781857;78;21002;-72
2021/07/15 09:53:45;;;;;;;6.15;5.53;;;;;;;34.75;35.35;100378.28;1788671;78;21190;-73
2021/07/15 09:56:16;;;;;;;6.90;5.40;;;;;;;34.84;34.87;100373.53;1790916;78;21061;-72
2021/07/15 09:58:48;;;;;;;6.53;5.70;;;;;;;34.93;35.28;100374.34;1772695;79;21126;-71
2021/07/15 10:01:20;;;;;;;6.70;5.50;;;;;;;35.05;34.53;100370.17;1790879;78;21015;-72
2021/07/15 10:03:51;;;;;;;5.92;5.20;;;;;;;35.14;33.88;100372.52;1786755;79;21482;-72
2021/07/15 10:06:19;;;;;;;6.58;5.95;;;;;;;35.15;32.54;100373.32;1791956;79;21027;-71
2021/07/15 10:08:55;;;;;;;5.97;5.37;;;;;;;35.02;33.40;100369.03;1791031;79;21544;-72
2021/07/15 10:11:28;;;;;;;6.53;5.50;;;;;;;35.02;33.59;100371.81;1768474;79;21046;-71
2021/07/15 10:14:07;;;;;;;7.72;5.72;;;;;;;34.96;33.33;100376.27;1782524;79;21015;-72
2021/07/15 10:16:44;;;;;;;5.83;5.33;;;;;;;34.89;33.27;100366.71;1775510;78;21058;-73
2021/07/15 10:19:21;;;;;;;6.95;5.30;;;;;;;34.68;33.29;100362.37;1765727;81;21015;-72
2021/07/15 10:22:07;;;;;;;5.70;5.10;;;;;;;34.64;33.95;100363.83;1764782;79;21942;-72
2021/07/15 10:24:35;;;;;;;5.78;5.17;;;;;;;34.74;33.16;100364.82;1758844;79;21061;-71
2021/07/15 10:27:10;;;;;;;5.95;5.00;;;;;;;34.77;33.06;100363.97;1768041;80;21185;-73
2021/07/15 10:29:38;;;;;;;5.85;5.30;;;;;;;34.76;33.09;100359.03;1788973;80;21004;-73
2021/07/15 10:32:06;;;;;;;7.62;6.40;;;;;;;34.76;32.01;100360.41;1787153;78;20999;-75
2021/07/15 10:34:33;;;;;;;5.33;4.80;;;;;;;34.66;32.88;100353.70;1781977;78;21151;-74
2021/07/15 10:37:01;;;;;;;5.95;5.25;;;;;;;34.67;32.87;100348.33;1754306;80;21169;-75
2021/07/15 10:39:29;;;;;;;6.12;5.50;;;;;;;34.75;33.64;100349.16;1760681;80;21591;-74
2021/07/15 10:55:27;;;;;;;6.67;6.08;;;;;;;35.91;30.25;100340.56;1790620;77;28580;-72
2021/07/15 10:57:54;;;;;;;6.97;5.20;;;;;;;35.85;31.84;100341.53;1774341;80;21027;-73
2021/07/15 11:00:27;;;;;;;6.90;5.17;;;;;;;35.77;31.28;100337.36;1776692;79;21552;-72
2021/07/15 11:03:17;;;;;;;6.55;5.25;;;;;;;35.73;30.19;100339.45;1773615;79;21025;-74
2021/07/15 11:05:49;;;;;;;5.45;4.92;;;;;;;35.71;29.89;100335.73;1834256;76;21027;-73
2021/07/15 11:08:17;;;;;;;7.55;5.22;;;;;;;35.68;28.83;100333.82;1838753;77;20971;-72
2021/07/15 11:10:46;;;;;;;7.25;4.90;;;;;;;35.48;28.51;100333.88;1845800;76;21136;-71
2021/07/15 11:13:17;;;;;;;7.97;5.28;;;;;;;35.16;29.75;100334.02;1827817;77;21160;-72
2021/07/15 11:15:55;;;;;;;7.60;5.60;;;;;;;34.99;30.58;100338.72;1827714;77;21271;-72
2021/07/15 11:18:47;;;;;;;6.37;5.55;;;;;;;34.86;29.73;100328.11;1827160;76;21575;-72
2021/07/15 11:21:30;;;;;;;6.10;5.50;;;;;;;34.78;29.67;100332.23;1829414;77;21073;-70
2021/07/15 11:24:10;;;;;;;9.00;5.17;;;;;;;34.67;29.31;100330.30;1837482;76;21073;-71
2021/07/15 11:26:41;;;;;;;6.15;5.55;;;;;;;34.62;29.92;100327.43;1831846;76;21096;-73
2021/07/15 11:29:10;;;;;;;7.25;5.55;;;;;;;34.70;30.63;100322.51;1836897;76;21019;-71
2021/07/15 11:31:53;;;;;;;7.67;5.47;;;;;;;34.78;31.95;100318.36;1838887;76;21034;-72
2021/07/15 11:34:40;;;;;;;6.30;5.50;;;;;;;34.84;31.43;100320.03;1838556;76;21035;-70
2021/07/15 11:37:35;;;;;;;8.20;5.20;;;;;;;34.96;31.12;100318.77;1840493;76;21465;-71
2021/07/15 11:40:08;;;;;;;6.05;4.67;;;;;;;35.14;31.15;100314.83;1846986;76;21051;-71
2021/07/15 11:42:40;;;;;;;6.37;5.60;;;;;;;35.25;29.58;100313.99;1815852;77;21048;-72
2021/07/15 11:45:09;;;;;;;6.67;5.72;;;;;;;35.22;29.24;100307.30;1842984;76;21018;-70